sensor_id;sensor_type;location;lat;lon;timestamp;P1;durP1;ratioP1;P2;durP2;ratioP2
37943;SDS011;23767;42.024;23.086;2023-01-01T00:01:53;184.47;;;123.97;;
37943;SDS011;23767;42.024;23.086;2023-01-01T00:04:19;177.17;;;124.70;;
37943;SDS011;23767;42.024;23.086;2023-01-01T00:06:45;167.50;;;116.50;;
37943;SDS011;23767;42.024;23.086;2023-01-01T00:09:11;166.00;;;118.13;;
37943;SDS011;23767;42.024;23.086;2023-01-01T00:11:55;164.40;;;112.33;;
37943;SDS011;23767;42.024;23.086;2023-01-01T00:14:22;159.10;;;108.27;;
37943;SDS011;23767;42.024;23.086;2023-01-01T00:16:48;144.50;;;98.10;;
37943;SDS011;23767;42.024;23.086;2023-01-01T00:19:14;100.37;;;66.70;;
37943;SDS011;23767;42.024;23.086;2023-01-01T00:21:40;86.83;;;57.27;;
37943;SDS011;23767;42.024;23.086;2023-01-01T00:24:06;77.37;;;53.70;;
37943;SDS011;23767;42.024;23.086;2023-01-01T00:26:33;91.40;;;59.97;;
37943;SDS011;23767;42.024;23.086;2023-01-01T00:28:59;99.97;;;68.53;;
37943;SDS011;23767;42.024;23.086;2023-01-01T00:31:25;103.83;;;69.70;;
37943;SDS011;23767;42.024;23.086;2023-01-01T00:33:52;98.63;;;67.67;;
37943;SDS011;23767;42.024;23.086;2023-01-01T00:36:19;89.50;;;60.87;;
37943;SDS011;23767;42.024;23.086;2023-01-01T00:38:45;92.30;;;63.50;;
37943;SDS011;23767;42.024;23.086;2023-01-01T00:41:11;91.57;;;61.70;;
37943;SDS011;23767;42.024;23.086;2023-01-01T00:43:38;85.20;;;58.93;;
37943;SDS011;23767;42.024;23.086;2023-01-01T00:46:04;85.17;;;58.87;;
37943;SDS011;23767;42.024;23.086;2023-01-01T00:48:32;95.43;;;64.03;;
37943;SDS011;23767;42.024;23.086;2023-01-01T00:50:58;112.57;;;73.57;;
37943;SDS011;23767;42.024;23.086;2023-01-01T00:53:24;108.90;;;77.30;;
37943;SDS011;23767;42.024;23.086;2023-01-01T00:55:50;111.53;;;77.27;;
37943;SDS011;23767;42.024;23.086;2023-01-01T00:58:18;108.10;;;75.60;;
37943;SDS011;23767;42.024;23.086;2023-01-01T01:00:44;105.70;;;71.40;;
37943;SDS011;23767;42.024;23.086;2023-01-01T01:03:11;106.23;;;75.83;;
37943;SDS011;23767;42.024;23.086;2023-01-01T01:05:52;105.23;;;73.97;;
37943;SDS011;23767;42.024;23.086;2023-01-01T01:08:19;105.57;;;72.07;;
37943;SDS011;23767;42.024;23.086;2023-01-01T01:10:45;97.40;;;70.50;;
37943;SDS011;23767;42.024;23.086;2023-01-01T01:13:11;111.83;;;78.90;;
37943;SDS011;23767;42.024;23.086;2023-01-01T01:15:37;96.17;;;67.23;;
37943;SDS011;23767;42.024;23.086;2023-01-01T01:18:03;94.33;;;63.13;;
37943;SDS011;23767;42.024;23.086;2023-01-01T01:20:29;98.17;;;64.77;;
37943;SDS011;23767;42.024;23.086;2023-01-01T01:22:55;99.33;;;66.73;;
37943;SDS011;23767;42.024;23.086;2023-01-01T01:25:21;94.43;;;64.17;;
37943;SDS011;23767;42.024;23.086;2023-01-01T01:27:47;117.77;;;81.63;;
37943;SDS011;23767;42.024;23.086;2023-01-01T01:30:13;106.63;;;71.03;;
37943;SDS011;23767;42.024;23.086;2023-01-01T01:32:39;111.93;;;77.23;;
37943;SDS011;23767;42.024;23.086;2023-01-01T01:35:05;95.20;;;67.43;;
37943;SDS011;23767;42.024;23.086;2023-01-01T01:37:32;84.00;;;53.43;;
37943;SDS011;23767;42.024;23.086;2023-01-01T01:39:58;87.27;;;58.37;;
37943;SDS011;23767;42.024;23.086;2023-01-01T01:42:24;102.57;;;60.80;;
37943;SDS011;23767;42.024;23.086;2023-01-01T01:45:00;72.93;;;50.53;;
37943;SDS011;23767;42.024;23.086;2023-01-01T01:50:03;76.50;;;51.57;;
37943;SDS011;23767;42.024;23.086;2023-01-01T01:52:30;79.30;;;54.47;;
37943;SDS011;23767;42.024;23.086;2023-01-01T01:54:58;80.37;;;54.83;;
37943;SDS011;23767;42.024;23.086;2023-01-01T01:57:26;79.63;;;48.63;;
37943;SDS011;23767;42.024;23.086;2023-01-01T01:59:52;72.47;;;49.80;;
37943;SDS011;23767;42.024;23.086;2023-01-01T02:04:51;83.35;;;55.00;;
37943;SDS011;23767;42.024;23.086;2023-01-01T02:07:18;82.90;;;55.33;;
37943;SDS011;23767;42.024;23.086;2023-01-01T02:09:44;83.10;;;54.70;;
37943;SDS011;23767;42.024;23.086;2023-01-01T02:12:10;84.20;;;57.33;;
37943;SDS011;23767;42.024;23.086;2023-01-01T02:14:36;71.07;;;49.30;;
37943;SDS011;23767;42.024;23.086;2023-01-01T02:17:06;73.40;;;51.17;;
37943;SDS011;23767;42.024;23.086;2023-01-01T02:22:16;90.17;;;63.17;;
37943;SDS011;23767;42.024;23.086;2023-01-01T02:29:41;73.73;;;49.07;;
37943;SDS011;23767;42.024;23.086;2023-01-01T02:32:10;75.63;;;49.20;;
37943;SDS011;23767;42.024;23.086;2023-01-01T02:34:38;63.77;;;43.10;;
37943;SDS011;23767;42.024;23.086;2023-01-01T02:37:06;63.50;;;43.13;;
37943;SDS011;23767;42.024;23.086;2023-01-01T02:39:34;61.53;;;42.77;;
37943;SDS011;23767;42.024;23.086;2023-01-01T02:42:02;64.00;;;44.97;;
37943;SDS011;23767;42.024;23.086;2023-01-01T02:44:30;65.50;;;41.53;;
37943;SDS011;23767;42.024;23.086;2023-01-01T02:47:04;62.60;;;39.13;;
37943;SDS011;23767;42.024;23.086;2023-01-01T02:49:30;70.57;;;46.47;;
37943;SDS011;23767;42.024;23.086;2023-01-01T02:52:00;66.33;;;44.87;;
37943;SDS011;23767;42.024;23.086;2023-01-01T02:59:26;86.27;;;57.33;;
37943;SDS011;23767;42.024;23.086;2023-01-01T03:12:53;82.80;;;54.43;;
37943;SDS011;23767;42.024;23.086;2023-01-01T03:15:26;80.80;;;53.60;;
37943;SDS011;23767;42.024;23.086;2023-01-01T03:18:14;78.07;;;52.20;;
37943;SDS011;23767;42.024;23.086;2023-01-01T03:20:41;72.23;;;48.30;;
37943;SDS011;23767;42.024;23.086;2023-01-01T03:23:10;67.47;;;47.90;;
37943;SDS011;23767;42.024;23.086;2023-01-01T03:25:47;73.13;;;50.27;;
37943;SDS011;23767;42.024;23.086;2023-01-01T03:28:19;75.57;;;51.50;;
37943;SDS011;23767;42.024;23.086;2023-01-01T03:30:47;75.87;;;49.67;;
37943;SDS011;23767;42.024;23.086;2023-01-01T03:33:25;75.57;;;49.33;;
37943;SDS011;23767;42.024;23.086;2023-01-01T03:35:57;73.77;;;48.40;;
37943;SDS011;23767;42.024;23.086;2023-01-01T03:40:55;71.30;;;48.87;;
37943;SDS011;23767;42.024;23.086;2023-01-01T03:43:33;67.73;;;46.20;;
37943;SDS011;23767;42.024;23.086;2023-01-01T03:46:00;72.53;;;47.50;;
37943;SDS011;23767;42.024;23.086;2023-01-01T03:48:26;79.70;;;53.40;;
37943;SDS011;23767;42.024;23.086;2023-01-01T03:50:58;73.53;;;48.60;;
37943;SDS011;23767;42.024;23.086;2023-01-01T03:56:03;73.97;;;48.72;;
37943;SDS011;23767;42.024;23.086;2023-01-01T03:58:33;66.80;;;44.72;;
37943;SDS011;23767;42.024;23.086;2023-01-01T04:01:01;74.10;;;46.13;;
37943;SDS011;23767;42.024;23.086;2023-01-01T04:03:29;68.87;;;45.73;;
37943;SDS011;23767;42.024;23.086;2023-01-01T04:05:55;73.77;;;46.13;;
37943;SDS011;23767;42.024;23.086;2023-01-01T04:08:21;78.30;;;47.93;;
37943;SDS011;23767;42.024;23.086;2023-01-01T04:10:50;78.63;;;47.90;;
37943;SDS011;23767;42.024;23.086;2023-01-01T04:13:16;77.53;;;48.20;;
37943;SDS011;23767;42.024;23.086;2023-01-01T04:15:42;77.93;;;48.97;;
37943;SDS011;23767;42.024;23.086;2023-01-01T04:18:08;73.33;;;48.20;;
37943;SDS011;23767;42.024;23.086;2023-01-01T04:20:34;70.90;;;46.37;;
37943;SDS011;23767;42.024;23.086;2023-01-01T04:23:01;74.30;;;47.23;;
37943;SDS011;23767;42.024;23.086;2023-01-01T04:25:27;76.63;;;46.93;;
37943;SDS011;23767;42.024;23.086;2023-01-01T04:27:53;71.17;;;45.63;;
37943;SDS011;23767;42.024;23.086;2023-01-01T04:30:19;70.93;;;45.83;;
37943;SDS011;23767;42.024;23.086;2023-01-01T04:32:46;77.33;;;47.83;;
37943;SDS011;23767;42.024;23.086;2023-01-01T04:35:13;68.33;;;45.97;;
37943;SDS011;23767;42.024;23.086;2023-01-01T04:37:40;73.00;;;46.00;;
37943;SDS011;23767;42.024;23.086;2023-01-01T04:40:06;82.27;;;47.80;;
37943;SDS011;23767;42.024;23.086;2023-01-01T04:42:33;71.23;;;46.00;;
37943;SDS011;23767;42.024;23.086;2023-01-01T04:44:59;72.47;;;44.17;;
37943;SDS011;23767;42.024;23.086;2023-01-01T04:47:25;71.53;;;45.90;;
37943;SDS011;23767;42.024;23.086;2023-01-01T04:49:51;71.50;;;43.43;;
37943;SDS011;23767;42.024;23.086;2023-01-01T04:52:18;70.53;;;43.07;;
37943;SDS011;23767;42.024;23.086;2023-01-01T04:54:44;70.53;;;46.20;;
37943;SDS011;23767;42.024;23.086;2023-01-01T04:57:10;70.20;;;42.60;;
37943;SDS011;23767;42.024;23.086;2023-01-01T04:59:36;62.93;;;44.13;;
37943;SDS011;23767;42.024;23.086;2023-01-01T05:02:02;60.93;;;41.37;;
37943;SDS011;23767;42.024;23.086;2023-01-01T05:04:28;62.30;;;42.10;;
37943;SDS011;23767;42.024;23.086;2023-01-01T05:06:54;58.07;;;38.57;;
37943;SDS011;23767;42.024;23.086;2023-01-01T05:09:20;54.67;;;38.43;;
37943;SDS011;23767;42.024;23.086;2023-01-01T05:11:46;47.03;;;34.37;;
37943;SDS011;23767;42.024;23.086;2023-01-01T05:14:13;68.10;;;42.53;;
37943;SDS011;23767;42.024;23.086;2023-01-01T05:16:39;59.93;;;42.20;;
37943;SDS011;23767;42.024;23.086;2023-01-01T05:19:05;64.83;;;43.50;;
37943;SDS011;23767;42.024;23.086;2023-01-01T05:21:33;68.80;;;46.17;;
37943;SDS011;23767;42.024;23.086;2023-01-01T05:24:03;59.10;;;41.73;;
37943;SDS011;23767;42.024;23.086;2023-01-01T05:26:31;62.53;;;43.20;;
37943;SDS011;23767;42.024;23.086;2023-01-01T05:28:57;62.47;;;42.10;;
37943;SDS011;23767;42.024;23.086;2023-01-01T05:31:25;58.70;;;41.57;;
37943;SDS011;23767;42.024;23.086;2023-01-01T05:33:51;57.90;;;39.00;;
37943;SDS011;23767;42.024;23.086;2023-01-01T05:36:18;53.30;;;37.57;;
37943;SDS011;23767;42.024;23.086;2023-01-01T05:38:45;58.40;;;40.03;;
37943;SDS011;23767;42.024;23.086;2023-01-01T05:41:12;59.87;;;38.80;;
37943;SDS011;23767;42.024;23.086;2023-01-01T05:43:38;72.03;;;43.87;;
37943;SDS011;23767;42.024;23.086;2023-01-01T05:46:05;68.93;;;42.13;;
37943;SDS011;23767;42.024;23.086;2023-01-01T05:48:32;69.90;;;42.80;;
37943;SDS011;23767;42.024;23.086;2023-01-01T05:53:29;88.97;;;49.43;;
37943;SDS011;23767;42.024;23.086;2023-01-01T05:55:55;79.07;;;45.63;;
37943;SDS011;23767;42.024;23.086;2023-01-01T05:58:21;73.17;;;44.87;;
37943;SDS011;23767;42.024;23.086;2023-01-01T06:00:47;66.63;;;41.27;;
37943;SDS011;23767;42.024;23.086;2023-01-01T06:03:13;65.40;;;40.67;;
37943;SDS011;23767;42.024;23.086;2023-01-01T06:05:40;71.77;;;43.10;;
37943;SDS011;23767;42.024;23.086;2023-01-01T06:08:06;74.10;;;44.87;;
37943;SDS011;23767;42.024;23.086;2023-01-01T06:10:32;68.40;;;42.70;;
37943;SDS011;23767;42.024;23.086;2023-01-01T06:12:58;68.97;;;42.90;;
37943;SDS011;23767;42.024;23.086;2023-01-01T06:15:24;76.13;;;42.83;;
37943;SDS011;23767;42.024;23.086;2023-01-01T06:17:50;66.27;;;40.97;;
37943;SDS011;23767;42.024;23.086;2023-01-01T06:20:17;67.07;;;42.40;;
37943;SDS011;23767;42.024;23.086;2023-01-01T06:22:43;68.93;;;44.13;;
37943;SDS011;23767;42.024;23.086;2023-01-01T06:25:09;62.43;;;41.07;;
37943;SDS011;23767;42.024;23.086;2023-01-01T06:27:35;54.03;;;34.00;;
37943;SDS011;23767;42.024;23.086;2023-01-01T06:30:02;52.93;;;35.67;;
37943;SDS011;23767;42.024;23.086;2023-01-01T06:32:29;44.13;;;31.40;;
37943;SDS011;23767;42.024;23.086;2023-01-01T06:34:55;47.23;;;31.70;;
37943;SDS011;23767;42.024;23.086;2023-01-01T06:37:21;45.83;;;31.30;;
37943;SDS011;23767;42.024;23.086;2023-01-01T06:39:47;47.67;;;31.37;;
37943;SDS011;23767;42.024;23.086;2023-01-01T06:42:13;61.00;;;34.53;;
37943;SDS011;23767;42.024;23.086;2023-01-01T06:44:39;70.53;;;44.37;;
37943;SDS011;23767;42.024;23.086;2023-01-01T06:47:05;54.63;;;35.10;;
37943;SDS011;23767;42.024;23.086;2023-01-01T06:49:31;60.07;;;37.53;;
37943;SDS011;23767;42.024;23.086;2023-01-01T06:51:57;53.03;;;34.60;;
37943;SDS011;23767;42.024;23.086;2023-01-01T06:54:23;55.40;;;34.10;;
37943;SDS011;23767;42.024;23.086;2023-01-01T06:56:49;58.37;;;36.80;;
37943;SDS011;23767;42.024;23.086;2023-01-01T06:59:16;63.23;;;38.97;;
37943;SDS011;23767;42.024;23.086;2023-01-01T07:01:42;55.83;;;36.60;;
37943;SDS011;23767;42.024;23.086;2023-01-01T07:04:12;81.03;;;42.43;;
37943;SDS011;23767;42.024;23.086;2023-01-01T07:06:39;62.23;;;37.93;;
37943;SDS011;23767;42.024;23.086;2023-01-01T07:09:05;71.73;;;41.53;;
37943;SDS011;23767;42.024;23.086;2023-01-01T07:11:32;74.33;;;42.33;;
37943;SDS011;23767;42.024;23.086;2023-01-01T07:13:58;67.27;;;39.83;;
37943;SDS011;23767;42.024;23.086;2023-01-01T07:16:24;64.83;;;39.73;;
37943;SDS011;23767;42.024;23.086;2023-01-01T07:18:51;71.87;;;42.27;;
37943;SDS011;23767;42.024;23.086;2023-01-01T07:21:30;75.03;;;44.17;;
37943;SDS011;23767;42.024;23.086;2023-01-01T07:23:57;78.50;;;43.53;;
37943;SDS011;23767;42.024;23.086;2023-01-01T07:26:24;80.70;;;46.03;;
37943;SDS011;23767;42.024;23.086;2023-01-01T07:28:51;99.27;;;48.67;;
37943;SDS011;23767;42.024;23.086;2023-01-01T07:31:17;83.93;;;46.93;;
37943;SDS011;23767;42.024;23.086;2023-01-01T07:33:43;80.40;;;46.13;;
37943;SDS011;23767;42.024;23.086;2023-01-01T07:36:09;86.23;;;46.30;;
37943;SDS011;23767;42.024;23.086;2023-01-01T07:38:35;75.40;;;43.53;;
37943;SDS011;23767;42.024;23.086;2023-01-01T07:41:01;77.07;;;43.13;;
37943;SDS011;23767;42.024;23.086;2023-01-01T07:43:27;72.03;;;42.47;;
37943;SDS011;23767;42.024;23.086;2023-01-01T07:45:53;75.03;;;43.87;;
37943;SDS011;23767;42.024;23.086;2023-01-01T07:48:19;83.93;;;46.47;;
37943;SDS011;23767;42.024;23.086;2023-01-01T07:50:45;79.77;;;46.57;;
37943;SDS011;23767;42.024;23.086;2023-01-01T07:53:11;79.27;;;44.57;;
37943;SDS011;23767;42.024;23.086;2023-01-01T07:55:37;80.03;;;43.83;;
37943;SDS011;23767;42.024;23.086;2023-01-01T07:58:03;77.80;;;43.87;;
37943;SDS011;23767;42.024;23.086;2023-01-01T08:00:29;80.83;;;44.20;;
37943;SDS011;23767;42.024;23.086;2023-01-01T08:02:55;73.53;;;40.57;;
37943;SDS011;23767;42.024;23.086;2023-01-01T08:05:22;78.40;;;42.83;;
37943;SDS011;23767;42.024;23.086;2023-01-01T08:07:49;70.40;;;41.27;;
37943;SDS011;23767;42.024;23.086;2023-01-01T08:10:16;72.43;;;43.17;;
37943;SDS011;23767;42.024;23.086;2023-01-01T08:12:42;67.10;;;39.43;;
37943;SDS011;23767;42.024;23.086;2023-01-01T08:15:08;66.03;;;39.97;;
37943;SDS011;23767;42.024;23.086;2023-01-01T08:17:35;68.23;;;39.73;;
37943;SDS011;23767;42.024;23.086;2023-01-01T08:20:01;70.20;;;40.80;;
37943;SDS011;23767;42.024;23.086;2023-01-01T08:22:27;59.23;;;35.13;;
37943;SDS011;23767;42.024;23.086;2023-01-01T08:24:53;60.13;;;34.13;;
37943;SDS011;23767;42.024;23.086;2023-01-01T08:27:19;61.47;;;34.70;;
37943;SDS011;23767;42.024;23.086;2023-01-01T08:29:45;59.33;;;35.03;;
37943;SDS011;23767;42.024;23.086;2023-01-01T08:32:12;62.40;;;35.55;;
37943;SDS011;23767;42.024;23.086;2023-01-01T08:34:38;64.95;;;37.90;;
37943;SDS011;23767;42.024;23.086;2023-01-01T08:37:04;60.05;;;34.20;;
37943;SDS011;23767;42.024;23.086;2023-01-01T08:39:30;64.03;;;34.92;;
37943;SDS011;23767;42.024;23.086;2023-01-01T08:41:56;62.60;;;34.38;;
37943;SDS011;23767;42.024;23.086;2023-01-01T08:44:22;65.82;;;36.83;;
37943;SDS011;23767;42.024;23.086;2023-01-01T08:46:48;64.72;;;37.35;;
37943;SDS011;23767;42.024;23.086;2023-01-01T08:49:14;68.28;;;37.65;;
37943;SDS011;23767;42.024;23.086;2023-01-01T08:51:40;73.32;;;38.65;;
37943;SDS011;23767;42.024;23.086;2023-01-01T08:54:06;76.05;;;41.45;;
37943;SDS011;23767;42.024;23.086;2023-01-01T08:56:32;67.18;;;37.80;;
37943;SDS011;23767;42.024;23.086;2023-01-01T08:58:59;74.50;;;39.40;;
37943;SDS011;23767;42.024;23.086;2023-01-01T09:01:25;75.18;;;40.50;;
37943;SDS011;23767;42.024;23.086;2023-01-01T09:03:52;70.70;;;38.78;;
37943;SDS011;23767;42.024;23.086;2023-01-01T09:06:18;67.93;;;38.60;;
37943;SDS011;23767;42.024;23.086;2023-01-01T09:08:44;67.70;;;39.75;;
37943;SDS011;23767;42.024;23.086;2023-01-01T09:11:48;86.80;;;43.60;;
37943;SDS011;23767;42.024;23.086;2023-01-01T09:14:02;68.72;;;40.55;;
37943;SDS011;23767;42.024;23.086;2023-01-01T09:16:28;70.85;;;42.10;;
37943;SDS011;23767;42.024;23.086;2023-01-01T09:18:54;74.65;;;44.70;;
37943;SDS011;23767;42.024;23.086;2023-01-01T09:21:20;74.93;;;45.00;;
37943;SDS011;23767;42.024;23.086;2023-01-01T09:23:46;94.28;;;52.03;;
37943;SDS011;23767;42.024;23.086;2023-01-01T09:26:12;86.53;;;49.80;;
37943;SDS011;23767;42.024;23.086;2023-01-01T09:28:38;85.35;;;49.28;;
37943;SDS011;23767;42.024;23.086;2023-01-01T09:31:04;92.40;;;52.45;;
37943;SDS011;23767;42.024;23.086;2023-01-01T09:33:33;100.70;;;56.85;;
37943;SDS011;23767;42.024;23.086;2023-01-01T09:36:12;100.50;;;54.95;;
37943;SDS011;23767;42.024;23.086;2023-01-01T09:38:38;100.68;;;55.17;;
37943;SDS011;23767;42.024;23.086;2023-01-01T09:41:17;98.88;;;56.97;;
37943;SDS011;23767;42.024;23.086;2023-01-01T09:43:54;110.55;;;62.92;;
37943;SDS011;23767;42.024;23.086;2023-01-01T09:46:22;110.78;;;62.80;;
37943;SDS011;23767;42.024;23.086;2023-01-01T09:48:53;107.57;;;61.85;;
37943;SDS011;23767;42.024;23.086;2023-01-01T09:51:21;104.95;;;61.33;;
37943;SDS011;23767;42.024;23.086;2023-01-01T09:53:50;108.05;;;61.03;;
37943;SDS011;23767;42.024;23.086;2023-01-01T09:56:22;108.38;;;63.03;;
37943;SDS011;23767;42.024;23.086;2023-01-01T09:58:48;99.97;;;58.70;;
37943;SDS011;23767;42.024;23.086;2023-01-01T10:03:47;98.03;;;57.55;;
37943;SDS011;23767;42.024;23.086;2023-01-01T10:06:18;102.20;;;61.92;;
37943;SDS011;23767;42.024;23.086;2023-01-01T10:13:46;96.32;;;59.38;;
37943;SDS011;23767;42.024;23.086;2023-01-01T10:18:45;99.57;;;61.05;;
37943;SDS011;23767;42.024;23.086;2023-01-01T10:21:16;92.78;;;57.22;;
37943;SDS011;23767;42.024;23.086;2023-01-01T10:24:14;95.32;;;57.38;;
37943;SDS011;23767;42.024;23.086;2023-01-01T10:26:43;87.03;;;53.10;;
37943;SDS011;23767;42.024;23.086;2023-01-01T10:29:14;93.47;;;59.67;;
37943;SDS011;23767;42.024;23.086;2023-01-01T10:31:42;87.80;;;55.75;;
37943;SDS011;23767;42.024;23.086;2023-01-01T10:36:44;80.45;;;50.90;;
37943;SDS011;23767;42.024;23.086;2023-01-01T10:39:14;77.97;;;50.60;;
37943;SDS011;23767;42.024;23.086;2023-01-01T10:41:41;82.05;;;52.67;;
37943;SDS011;23767;42.024;23.086;2023-01-01T10:44:07;80.13;;;50.83;;
37943;SDS011;23767;42.024;23.086;2023-01-01T10:46:33;78.68;;;51.08;;
37943;SDS011;23767;42.024;23.086;2023-01-01T10:49:03;79.72;;;51.35;;
37943;SDS011;23767;42.024;23.086;2023-01-01T10:51:29;78.65;;;51.63;;
37943;SDS011;23767;42.024;23.086;2023-01-01T10:53:55;80.53;;;53.17;;
37943;SDS011;23767;42.024;23.086;2023-01-01T10:56:22;81.93;;;52.90;;
37943;SDS011;23767;42.024;23.086;2023-01-01T10:58:54;88.97;;;56.75;;
37943;SDS011;23767;42.024;23.086;2023-01-01T11:08:58;75.00;;;51.45;;
37943;SDS011;23767;42.024;23.086;2023-01-01T11:11:45;78.70;;;49.60;;
37943;SDS011;23767;42.024;23.086;2023-01-01T11:14:54;75.25;;;52.17;;
37943;SDS011;23767;42.024;23.086;2023-01-01T11:17:01;70.55;;;45.60;;
37943;SDS011;23767;42.024;23.086;2023-01-01T11:19:28;69.03;;;45.20;;
37943;SDS011;23767;42.024;23.086;2023-01-01T11:21:55;68.05;;;45.40;;
37943;SDS011;23767;42.024;23.086;2023-01-01T11:24:23;66.15;;;43.75;;
37943;SDS011;23767;42.024;23.086;2023-01-01T11:26:50;51.85;;;36.70;;
37943;SDS011;23767;42.024;23.086;2023-01-01T11:29:26;60.20;;;39.40;;
37943;SDS011;23767;42.024;23.086;2023-01-01T11:31:53;51.08;;;36.22;;
37943;SDS011;23767;42.024;23.086;2023-01-01T11:36:52;44.95;;;31.63;;
37943;SDS011;23767;42.024;23.086;2023-01-01T11:39:24;43.38;;;31.90;;
37943;SDS011;23767;42.024;23.086;2023-01-01T11:41:51;51.65;;;34.58;;
37943;SDS011;23767;42.024;23.086;2023-01-01T11:44:25;56.35;;;37.78;;
37943;SDS011;23767;42.024;23.086;2023-01-01T11:46:54;55.08;;;36.92;;
37943;SDS011;23767;42.024;23.086;2023-01-01T11:49:22;50.72;;;35.67;;
37943;SDS011;23767;42.024;23.086;2023-01-01T11:51:49;45.38;;;33.75;;
37943;SDS011;23767;42.024;23.086;2023-01-01T11:56:52;50.40;;;35.80;;
37943;SDS011;23767;42.024;23.086;2023-01-01T11:59:21;45.15;;;32.17;;
37943;SDS011;23767;42.024;23.086;2023-01-01T12:01:50;46.40;;;33.47;;
37943;SDS011;23767;42.024;23.086;2023-01-01T12:09:33;47.28;;;35.13;;
37943;SDS011;23767;42.024;23.086;2023-01-01T12:12:10;44.53;;;32.53;;
37943;SDS011;23767;42.024;23.086;2023-01-01T12:14:50;49.28;;;33.42;;
37943;SDS011;23767;42.024;23.086;2023-01-01T12:17:27;46.85;;;33.05;;
37943;SDS011;23767;42.024;23.086;2023-01-01T12:23:01;40.20;;;29.27;;
37943;SDS011;23767;42.024;23.086;2023-01-01T12:25:32;46.00;;;34.53;;
37943;SDS011;23767;42.024;23.086;2023-01-01T12:33:25;35.28;;;27.20;;
37943;SDS011;23767;42.024;23.086;2023-01-01T12:46:05;34.88;;;26.23;;
37943;SDS011;23767;42.024;23.086;2023-01-01T12:58:59;39.40;;;29.20;;
37943;SDS011;23767;42.024;23.086;2023-01-01T13:01:27;37.28;;;28.05;;
37943;SDS011;23767;42.024;23.086;2023-01-01T13:06:41;35.25;;;24.05;;
37943;SDS011;23767;42.024;23.086;2023-01-01T13:09:16;31.83;;;22.75;;
37943;SDS011;23767;42.024;23.086;2023-01-01T13:11:44;29.55;;;21.88;;
37943;SDS011;23767;42.024;23.086;2023-01-01T13:14:11;29.38;;;21.50;;
37943;SDS011;23767;42.024;23.086;2023-01-01T13:16:38;33.90;;;22.77;;
37943;SDS011;23767;42.024;23.086;2023-01-01T13:19:05;30.13;;;19.98;;
37943;SDS011;23767;42.024;23.086;2023-01-01T13:21:32;28.80;;;19.60;;
37943;SDS011;23767;42.024;23.086;2023-01-01T13:24:04;25.65;;;18.00;;
37943;SDS011;23767;42.024;23.086;2023-01-01T13:26:43;23.02;;;17.67;;
37943;SDS011;23767;42.024;23.086;2023-01-01T13:36:49;26.95;;;19.52;;
37943;SDS011;23767;42.024;23.086;2023-01-01T13:45:06;28.02;;;19.80;;
37943;SDS011;23767;42.024;23.086;2023-01-01T13:50:45;23.90;;;17.05;;
37943;SDS011;23767;42.024;23.086;2023-01-01T13:53:20;22.05;;;16.08;;
37943;SDS011;23767;42.024;23.086;2023-01-01T13:59:03;25.83;;;17.15;;
37943;SDS011;23767;42.024;23.086;2023-01-01T14:04:00;23.80;;;17.50;;
37943;SDS011;23767;42.024;23.086;2023-01-01T14:06:37;25.25;;;16.88;;
37943;SDS011;23767;42.024;23.086;2023-01-01T14:09:05;27.05;;;17.05;;
37943;SDS011;23767;42.024;23.086;2023-01-01T14:11:31;21.40;;;16.35;;
37943;SDS011;23767;42.024;23.086;2023-01-01T14:13:57;23.40;;;17.98;;
37943;SDS011;23767;42.024;23.086;2023-01-01T14:16:24;24.27;;;17.50;;
37943;SDS011;23767;42.024;23.086;2023-01-01T14:18:52;29.10;;;20.88;;
37943;SDS011;23767;42.024;23.086;2023-01-01T14:21:22;26.52;;;19.30;;
37943;SDS011;23767;42.024;23.086;2023-01-01T14:23:52;24.83;;;18.35;;
37943;SDS011;23767;42.024;23.086;2023-01-01T14:26:20;23.80;;;18.23;;
37943;SDS011;23767;42.024;23.086;2023-01-01T14:28:46;25.33;;;18.23;;
37943;SDS011;23767;42.024;23.086;2023-01-01T14:31:14;28.98;;;18.98;;
37943;SDS011;23767;42.024;23.086;2023-01-01T14:33:41;31.40;;;20.23;;
37943;SDS011;23767;42.024;23.086;2023-01-01T14:36:20;27.92;;;20.05;;
37943;SDS011;23767;42.024;23.086;2023-01-01T14:38:48;25.95;;;18.92;;
37943;SDS011;23767;42.024;23.086;2023-01-01T14:43:44;24.05;;;17.67;;
37943;SDS011;23767;42.024;23.086;2023-01-01T14:46:14;23.98;;;17.63;;
37943;SDS011;23767;42.024;23.086;2023-01-01T14:48:44;27.08;;;18.67;;
37943;SDS011;23767;42.024;23.086;2023-01-01T14:51:12;27.48;;;19.52;;
37943;SDS011;23767;42.024;23.086;2023-01-01T14:53:39;29.25;;;19.48;;
37943;SDS011;23767;42.024;23.086;2023-01-01T14:56:06;27.35;;;20.40;;
37943;SDS011;23767;42.024;23.086;2023-01-01T14:58:33;31.98;;;20.90;;
37943;SDS011;23767;42.024;23.086;2023-01-01T15:01:16;30.73;;;23.00;;
37943;SDS011;23767;42.024;23.086;2023-01-01T15:03:59;44.53;;;29.80;;
37943;SDS011;23767;42.024;23.086;2023-01-01T15:06:25;45.28;;;31.67;;
37943;SDS011;23767;42.024;23.086;2023-01-01T15:08:52;44.00;;;31.98;;
37943;SDS011;23767;42.024;23.086;2023-01-01T15:11:18;45.35;;;33.75;;
37943;SDS011;23767;42.024;23.086;2023-01-01T15:14:00;43.33;;;30.70;;
37943;SDS011;23767;42.024;23.086;2023-01-01T15:16:27;49.50;;;31.43;;
37943;SDS011;23767;42.024;23.086;2023-01-01T15:18:53;42.40;;;29.85;;
37943;SDS011;23767;42.024;23.086;2023-01-01T15:23:57;38.60;;;28.73;;
37943;SDS011;23767;42.024;23.086;2023-01-01T15:26:32;40.72;;;27.77;;
37943;SDS011;23767;42.024;23.086;2023-01-01T15:28:59;38.75;;;27.25;;
37943;SDS011;23767;42.024;23.086;2023-01-01T15:31:33;38.92;;;26.45;;
37943;SDS011;23767;42.024;23.086;2023-01-01T15:33:59;36.60;;;26.42;;
37943;SDS011;23767;42.024;23.086;2023-01-01T15:36:25;34.13;;;23.33;;
37943;SDS011;23767;42.024;23.086;2023-01-01T15:38:51;30.92;;;22.67;;
37943;SDS011;23767;42.024;23.086;2023-01-01T15:41:51;33.53;;;23.00;;
37943;SDS011;23767;42.024;23.086;2023-01-01T15:46:44;33.15;;;24.52;;
37943;SDS011;23767;42.024;23.086;2023-01-01T15:49:24;33.05;;;24.08;;
37943;SDS011;23767;42.024;23.086;2023-01-01T15:51:52;31.35;;;23.40;;
37943;SDS011;23767;42.024;23.086;2023-01-01T15:54:18;65.47;;;44.25;;
37943;SDS011;23767;42.024;23.086;2023-01-01T15:56:44;47.97;;;32.33;;
37943;SDS011;23767;42.024;23.086;2023-01-01T15:59:24;31.95;;;20.73;;
37943;SDS011;23767;42.024;23.086;2023-01-01T16:01:51;27.85;;;20.17;;
37943;SDS011;23767;42.024;23.086;2023-01-01T16:04:20;26.73;;;19.27;;
37943;SDS011;23767;42.024;23.086;2023-01-01T16:06:49;33.03;;;23.25;;
37943;SDS011;23767;42.024;23.086;2023-01-01T16:09:16;32.30;;;24.20;;
37943;SDS011;23767;42.024;23.086;2023-01-01T16:11:42;38.50;;;27.75;;
37943;SDS011;23767;42.024;23.086;2023-01-01T16:14:08;36.45;;;25.77;;
37943;SDS011;23767;42.024;23.086;2023-01-01T16:16:35;32.63;;;24.02;;
37943;SDS011;23767;42.024;23.086;2023-01-01T16:19:02;37.78;;;28.25;;
37943;SDS011;23767;42.024;23.086;2023-01-01T16:21:28;38.15;;;27.75;;
37943;SDS011;23767;42.024;23.086;2023-01-01T16:23:56;39.17;;;27.58;;